Weather History for Forest City, IA

Change the Weather History Date:

Thursday, May 16, 2013

  Actual Average Record
Temperature  
Mean Temperature 68 °F -  
Max Temperature 86 °F 73 °F 86 °F (2013)
Min Temperature 50 °F 47 °F 35 °F (2014)
Cooling Degree Days 3    
Growing Degree Days 18 (Base 50)    
Moisture  
Dew Point 41 °F    
Average Humidity 47    
Maximum Humidity 88    
Minimum Humidity 9    
Precipitation  
Precipitation 0.05 in - - ()
Sea Level Pressure  
Sea Level Pressure 29.88 in    
Wind  
Wind Speed 3 mph (SE)    
Max Wind Speed 16 mph    
Max Gust Speed 18 mph    
Visibility 10 miles    
Events Rain    
Averages and records for this station are not official NWS values.
T = Trace of Precipitation, MM = Missing Value Source: NWS Daily Summary

Daily Weather History Graph

Daily Weather History Graph

Search for Another Location

Airport:

Trip Planner

Search our weather history database for the weather conditions in past years. The results will help you decide how hot, cold, wet, or windy it might be!

Date:

Astronomy

May. 16, 2013 Rise Set
Actual Time 5:49 AM CDT 8:33 PM CDT
Civil Twilight 5:16 AM CDT 9:06 PM CDT
Nautical Twilight 4:34 AM CDT 9:47 PM CDT
Astronomical Twilight 3:47 AM CDT 10:35 PM CDT
Moon 11:26 AM CDT (5/16) 12:51 AM CDT (5/16)
Length of Visible Light 15h 49m
Length of Day
14h 43m
Waxing Crescent, 36% of the Moon is Illuminated
May 16
Waxing Crescent
May 17
First Quarter
May 24
Full
May 31
Last Quarter
Jun 8
New

Hourly Weather History & Observations

Time (CDT) Temp. Dew Point Humidity Pressure Visibility Wind Dir Wind Speed Gust Speed Precip Events Conditions
12:15 AM 57.2 °F 50.0 °F 77% 29.89 in 10.0 mi Calm Calm - N/A   Clear
12:35 AM 55.4 °F 46.4 °F 72% 29.89 in 10.0 mi Calm Calm - N/A   Clear
12:55 AM 53.6 °F 46.4 °F 77% 29.89 in 10.0 mi Calm Calm - N/A   Clear
1:15 AM 55.4 °F 44.6 °F 67% 29.89 in 10.0 mi Calm Calm - N/A   Clear
1:35 AM 53.6 °F 46.4 °F 77% 29.89 in 10.0 mi Calm Calm - N/A   Clear
1:55 AM 50.0 °F 42.8 °F 76% 29.90 in 10.0 mi Calm Calm - N/A   Clear
2:15 AM 53.6 °F 44.6 °F 72% 29.90 in 10.0 mi Calm Calm - N/A   Clear
2:35 AM 53.6 °F 44.6 °F 72% 29.89 in 10.0 mi Calm Calm - N/A   Clear
2:55 AM 51.8 °F 46.4 °F 82% 29.89 in 10.0 mi Calm Calm - N/A   Clear
3:15 AM 50.0 °F 44.6 °F 82% 29.89 in 10.0 mi Calm Calm - N/A   Clear
3:35 AM 51.8 °F 46.4 °F 82% 29.89 in 10.0 mi Calm Calm - N/A   Clear
3:55 AM 50.0 °F 46.4 °F 87% 29.89 in 10.0 mi Calm Calm - N/A   Clear
4:15 AM 51.8 °F 46.4 °F 82% 29.89 in 10.0 mi Calm Calm - N/A   Clear
4:35 AM 50.0 °F 46.4 °F 87% 29.89 in 10.0 mi Calm Calm - N/A   Clear
4:55 AM 50.0 °F 46.4 °F 87% 29.90 in 10.0 mi Calm Calm - N/A   Clear
5:15 AM 50.0 °F 44.6 °F 82% 29.90 in 10.0 mi Calm Calm - N/A   Clear
5:35 AM 50.0 °F 44.6 °F 82% 29.90 in 10.0 mi Calm Calm - N/A   Clear
5:55 AM 50.0 °F 42.8 °F 76% 29.91 in 10.0 mi Calm Calm - N/A   Clear
6:15 AM 50.0 °F 44.6 °F 82% 29.91 in 10.0 mi Calm Calm - N/A   Clear
6:35 AM 50.0 °F 46.4 °F 87% 29.91 in 10.0 mi Calm Calm - N/A   Clear
6:55 AM 53.6 °F 46.4 °F 77% 29.92 in 10.0 mi Calm Calm - N/A   Clear
7:15 AM 55.4 °F 46.4 °F 72% 29.92 in 10.0 mi Calm Calm - N/A   Clear
7:35 AM 59.0 °F 46.4 °F 63% 29.93 in 10.0 mi Calm Calm - N/A   Clear
7:55 AM 62.6 °F 46.4 °F 55% 29.93 in 10.0 mi Calm Calm - N/A   Clear
8:15 AM 64.4 °F 46.4 °F 52% 29.93 in 10.0 mi Calm Calm - N/A   Clear
8:35 AM 68.0 °F 48.2 °F 49% 29.94 in 10.0 mi Calm Calm - N/A   Clear
8:55 AM 69.8 °F 46.4 °F 43% 29.94 in 10.0 mi Calm Calm - N/A   Clear
9:15 AM 73.4 °F 44.6 °F 36% 29.93 in 10.0 mi Calm Calm - N/A   Clear
9:35 AM 75.2 °F 39.2 °F 27% 29.93 in 10.0 mi SE 4.6 mph - N/A   Clear
9:55 AM 77.0 °F 35.6 °F 22% 29.92 in 10.0 mi SE 4.6 mph - N/A   Clear
10:15 AM 78.8 °F 33.8 °F 20% 29.92 in 10.0 mi ESE 6.9 mph - N/A   Clear
10:35 AM 78.8 °F 33.8 °F 20% 29.92 in 10.0 mi SSE 5.8 mph - N/A   Clear
10:55 AM 78.8 °F 33.8 °F 20% 29.90 in 10.0 mi SSE 9.2 mph - N/A   Clear
11:15 AM 80.6 °F 35.6 °F 20% 29.90 in 10.0 mi SSE 8.1 mph - N/A   Clear
11:35 AM 80.6 °F 32.0 °F 17% 29.89 in 10.0 mi SSE 9.2 mph - N/A   Clear
11:55 AM 82.4 °F 32.0 °F 16% 29.89 in 10.0 mi ESE 5.8 mph - N/A   Clear
12:15 PM 82.4 °F 30.2 °F 15% 29.88 in 10.0 mi SSE 5.8 mph - N/A   Clear
12:35 PM 82.4 °F 26.6 °F 13% 29.88 in 10.0 mi ESE 5.8 mph - N/A   Clear
12:55 PM 82.4 °F 21.2 °F 10% 29.87 in 10.0 mi East 4.6 mph 16.1 mph N/A   Clear
1:15 PM 84.2 °F 19.4 °F 9% 29.87 in 10.0 mi East 5.8 mph 17.3 mph N/A   Clear
1:35 PM 84.2 °F 23.0 °F 11% 29.86 in 10.0 mi East 8.1 mph - N/A   Clear
2:15 PM 84.2 °F 23.0 °F 11% 29.85 in 10.0 mi East 12.7 mph 18.4 mph N/A   Clear
2:35 PM 84.2 °F 23.0 °F 11% 29.84 in 10.0 mi East 5.8 mph - N/A   Clear
2:55 PM 86.0 °F 21.2 °F 9% 29.84 in 10.0 mi East 9.2 mph 16.1 mph N/A   Clear
3:15 PM 86.0 °F 23.0 °F 10% 29.84 in 10.0 mi East 6.9 mph - N/A   Clear
3:35 PM 86.0 °F 19.4 °F 9% 29.84 in 10.0 mi ESE 6.9 mph - N/A   Clear
3:55 PM 86.0 °F 21.2 °F 9% 29.84 in 10.0 mi East 4.6 mph - N/A   Clear
4:15 PM 86.0 °F 21.2 °F 9% 29.83 in 10.0 mi ESE 8.1 mph - N/A   Clear
4:35 PM 84.2 °F 26.6 °F 12% 29.83 in 10.0 mi ESE 8.1 mph - N/A   Clear
4:55 PM 84.2 °F 30.2 °F 14% 29.83 in 10.0 mi ESE 8.1 mph - N/A   Clear
5:15 PM 84.2 °F 32.0 °F 15% 29.82 in 10.0 mi ESE 9.2 mph - N/A   Clear
5:35 PM 82.4 °F 32.0 °F 16% 29.81 in 10.0 mi ESE 9.2 mph - N/A   Scattered Clouds
5:55 PM 82.4 °F 32.0 °F 16% 29.82 in 10.0 mi ESE 12.7 mph - N/A   Scattered Clouds
6:15 PM 82.4 °F 32.0 °F 16% 29.81 in 10.0 mi ESE 10.4 mph - N/A   Clear
6:35 PM 82.4 °F 32.0 °F 16% 29.83 in 10.0 mi SE 9.2 mph - N/A   Clear
6:55 PM 80.6 °F 33.8 °F 18% 29.83 in 10.0 mi SSE 11.5 mph - N/A   Scattered Clouds
7:15 PM 80.6 °F 35.6 °F 20% 29.83 in 10.0 mi SE 9.2 mph - N/A   Mostly Cloudy
7:35 PM 77.0 °F 37.4 °F 24% 29.84 in 10.0 mi SSE 8.1 mph - N/A   Scattered Clouds
7:55 PM 77.0 °F 41.0 °F 28% 29.84 in 10.0 mi SE 6.9 mph - N/A   Scattered Clouds
8:15 PM 75.2 °F 41.0 °F 29% 29.85 in 10.0 mi SSE 6.9 mph - N/A   Scattered Clouds
8:35 PM 75.2 °F 46.4 °F 36% 29.86 in 10.0 mi SSW 16.1 mph - N/A   Scattered Clouds
8:55 PM 71.6 °F 53.6 °F 53% 29.86 in 10.0 mi SSW 9.2 mph - N/A Rain Light Rain
9:15 PM 69.8 °F 57.2 °F 64% 29.88 in 10.0 mi SW 9.2 mph - N/A Rain Light Rain
9:35 PM 68.0 °F 59.0 °F 73% 29.89 in 10.0 mi SW 10.4 mph - 0.01 in Rain Light Rain
9:55 PM 66.2 °F 59.0 °F 78% 29.89 in 10.0 mi SW 9.2 mph - 0.02 in Rain Rain
10:15 PM 64.4 °F 60.8 °F 88% 29.89 in 10.0 mi SSW 9.2 mph - 0.01 in Rain Light Rain
10:35 PM 64.4 °F 60.8 °F 88% 29.88 in 10.0 mi South 9.2 mph - 0.03 in Rain Light Rain
10:55 PM 66.2 °F 60.8 °F 83% 29.88 in 10.0 mi SSE 10.4 mph - 0.03 in Rain Light Rain
11:15 PM 66.2 °F 60.8 °F 83% 29.87 in 10.0 mi South 6.9 mph - N/A   Light Drizzle
11:35 PM 64.4 °F 60.8 °F 88% 29.85 in 10.0 mi East 8.1 mph - N/A   Overcast
11:55 PM 66.2 °F 60.8 °F 83% 29.84 in 10.0 mi ENE 4.6 mph - N/A   Overcast